createdAt,value
2022-08-16T00:00:03.206Z,2.40
2022-08-16T00:02:31.052Z,2.85
2022-08-16T00:04:59.872Z,2.70
2022-08-16T00:07:29.145Z,3.55
2022-08-16T00:09:57.674Z,2.33
2022-08-16T00:12:26.694Z,2.63
2022-08-16T00:14:56.762Z,2.88
2022-08-16T00:17:24.665Z,2.70
2022-08-16T00:19:53.617Z,3.10
2022-08-16T00:22:27.903Z,3.45
2022-08-16T00:24:55.187Z,3.00
2022-08-16T00:27:23.008Z,2.95
2022-08-16T00:30:00.595Z,3.00
2022-08-16T00:32:45.780Z,3.05
2022-08-16T00:35:16.151Z,3.03
2022-08-16T00:37:57.983Z,2.92
2022-08-16T00:40:43.452Z,3.05
2022-08-16T00:43:40.774Z,3.33
2022-08-16T00:46:33.810Z,2.90
2022-08-16T00:49:06.621Z,3.00
2022-08-16T00:51:44.792Z,3.40
2022-08-16T00:54:12.235Z,3.33
2022-08-16T00:56:56.899Z,3.10
2022-08-16T00:59:27.650Z,3.63
2022-08-16T01:01:54.485Z,3.13
2022-08-16T01:04:28.950Z,3.10
2022-08-16T01:07:02.144Z,3.50
2022-08-16T01:09:34.194Z,3.47
2022-08-16T01:12:03.253Z,3.45
2022-08-16T01:14:33.393Z,3.47
2022-08-16T01:17:00.864Z,3.60
2022-08-16T01:19:36.138Z,3.50
2022-08-16T01:22:48.074Z,3.35
2022-08-16T01:25:22.510Z,4.07
2022-08-16T01:28:02.705Z,3.80
2022-08-16T01:30:34.179Z,3.72
2022-08-16T01:33:15.237Z,3.10
2022-08-16T01:35:52.634Z,3.35
2022-08-16T01:38:40.438Z,3.78
2022-08-16T01:41:19.826Z,3.85
2022-08-16T01:46:39.495Z,3.70
2022-08-16T01:49:43.276Z,3.85
2022-08-16T01:52:29.253Z,4.00
2022-08-16T01:54:56.957Z,3.80
2022-08-16T01:57:24.713Z,4.22
2022-08-16T01:59:54.732Z,4.40
2022-08-16T02:02:27.518Z,3.53
2022-08-16T02:04:56.026Z,3.90
2022-08-16T02:07:24.455Z,4.00
2022-08-16T02:09:57.376Z,4.00
2022-08-16T02:12:49.406Z,3.60
2022-08-16T02:15:15.509Z,4.20
2022-08-16T02:17:43.210Z,3.72
2022-08-16T02:20:11.836Z,3.75
2022-08-16T02:22:38.691Z,3.78
2022-08-16T02:25:09.870Z,3.97
2022-08-16T02:27:37.380Z,3.60
2022-08-16T02:30:07.675Z,3.60
2022-08-16T02:32:50.397Z,4.22
2022-08-16T02:35:18.826Z,3.38
2022-08-16T02:37:52.250Z,4.20
2022-08-16T02:40:21.723Z,3.60
2022-08-16T02:42:50.685Z,4.10
2022-08-16T02:45:19.473Z,4.10
2022-08-16T02:48:00.362Z,3.83
2022-08-16T02:51:02.900Z,3.92
2022-08-16T02:53:23.579Z,3.03
2022-08-16T02:55:50.904Z,3.38
2022-08-16T02:58:18.099Z,4.30
2022-08-16T03:00:45.618Z,3.80
2022-08-16T03:03:17.720Z,3.53
2022-08-16T03:05:50.022Z,3.80
2022-08-16T03:08:50.696Z,4.57
2022-08-16T03:11:17.868Z,4.13
2022-08-16T03:13:56.507Z,3.75
2022-08-16T03:16:38.470Z,3.92
2022-08-16T03:19:08.793Z,3.60
2022-08-16T03:21:37.961Z,4.22
2022-08-16T03:24:29.398Z,3.47
2022-08-16T03:26:58.984Z,3.85
2022-08-16T03:29:32.943Z,3.90
2022-08-16T03:32:01.488Z,4.10
2022-08-16T03:34:30.237Z,3.55
2022-08-16T03:36:57.425Z,4.07
2022-08-16T03:39:24.519Z,3.80
2022-08-16T03:41:59.660Z,4.18
2022-08-16T03:44:44.783Z,4.32
2022-08-16T03:47:18.958Z,4.15
2022-08-16T03:49:47.562Z,3.90
2022-08-16T03:52:19.997Z,3.92
2022-08-16T03:54:53.585Z,4.22
2022-08-16T03:57:31.941Z,4.28
2022-08-16T04:00:35.494Z,4.80
2022-08-16T04:03:07.680Z,4.72
2022-08-16T04:05:37.964Z,4.63
2022-08-16T04:08:23.356Z,4.60
2022-08-16T04:10:53.166Z,4.30
2022-08-16T04:13:59.470Z,4.63
2022-08-16T04:16:07.471Z,4.78
2022-08-16T04:18:36.975Z,4.45
2022-08-16T04:21:03.930Z,4.75
2022-08-16T04:23:30.595Z,5.22
2022-08-16T04:25:58.212Z,4.97
2022-08-16T04:28:55.743Z,5.18
2022-08-16T04:31:15.433Z,5.10
2022-08-16T04:33:51.108Z,4.60
2022-08-16T04:36:19.826Z,4.53
2022-08-16T04:38:47.421Z,4.32
2022-08-16T04:41:17.563Z,5.00
2022-08-16T04:43:44.524Z,5.07
2022-08-16T04:47:01.360Z,4.47
2022-08-16T04:48:59.254Z,4.88
2022-08-16T04:51:26.641Z,4.72
2022-08-16T04:54:02.479Z,4.38
2022-08-16T04:56:30.196Z,4.75
2022-08-16T04:58:57.596Z,4.15
2022-08-16T05:01:24.673Z,4.40
2022-08-16T05:04:19.163Z,4.13
2022-08-16T05:06:46.701Z,4.00
2022-08-16T05:09:14.516Z,4.38
2022-08-16T05:11:43.114Z,4.45
2022-08-16T05:14:09.894Z,4.88
2022-08-16T05:16:36.572Z,4.43
2022-08-16T05:19:04.855Z,4.97
2022-08-16T05:21:37.994Z,4.72
2022-08-16T05:24:06.084Z,4.55
2022-08-16T05:26:34.476Z,4.80
2022-08-16T05:29:04.476Z,4.18
2022-08-16T05:31:31.425Z,4.50
2022-08-16T05:34:03.336Z,3.97
2022-08-16T05:36:34.358Z,4.53
2022-08-16T05:39:08.848Z,4.22
2022-08-16T05:41:45.373Z,4.65
2022-08-16T05:44:22.856Z,4.43
2022-08-16T05:46:56.294Z,4.22
2022-08-16T05:49:23.796Z,4.63
2022-08-16T05:51:50.460Z,4.00
2022-08-16T05:54:24.997Z,3.80
2022-08-16T05:56:53.240Z,3.58
2022-08-16T05:59:22.073Z,3.55
2022-08-16T06:01:50.705Z,4.22
2022-08-16T06:04:36.506Z,3.53
2022-08-16T06:07:09.001Z,3.78
2022-08-16T06:09:51.046Z,4.10
2022-08-16T06:12:28.056Z,3.95
2022-08-16T06:15:01.768Z,4.15
2022-08-16T06:17:42.486Z,5.32
2022-08-16T06:20:37.840Z,4.40
2022-08-16T06:23:24.069Z,3.63
2022-08-16T06:25:52.948Z,3.95
2022-08-16T06:28:36.216Z,4.25
2022-08-16T06:31:04.842Z,3.60
2022-08-16T06:33:41.176Z,3.95
2022-08-16T06:36:09.463Z,3.42
2022-08-16T06:38:36.602Z,3.88
2022-08-16T06:41:13.671Z,3.55
2022-08-16T06:43:41.652Z,3.47
2022-08-16T06:46:10.739Z,3.50
2022-08-16T06:48:37.632Z,3.90
2022-08-16T06:51:09.940Z,3.67
2022-08-16T06:53:36.905Z,4.00
2022-08-16T06:56:14.830Z,3.80
2022-08-16T06:58:51.563Z,5.15
2022-08-16T07:01:22.749Z,4.35
2022-08-16T07:03:55.863Z,3.55
2022-08-16T07:06:26.478Z,3.90
2022-08-16T07:08:54.354Z,4.22
2022-08-16T07:11:20.950Z,4.40
2022-08-16T07:14:25.040Z,4.72
2022-08-16T07:16:55.606Z,4.72
2022-08-16T07:20:01.540Z,3.72
2022-08-16T07:22:52.385Z,4.38
2022-08-16T07:24:58.652Z,4.65
2022-08-16T07:27:25.949Z,4.53
2022-08-16T07:29:55.606Z,3.70
2022-08-16T07:32:29.688Z,5.10
2022-08-16T07:34:58.962Z,3.90
2022-08-16T07:37:26.012Z,4.22
2022-08-16T07:39:54.593Z,3.65
2022-08-16T07:42:28.502Z,3.90
2022-08-16T07:45:01.659Z,4.05
2022-08-16T07:47:31.657Z,4.05
2022-08-16T07:49:58.917Z,3.53
2022-08-16T07:52:29.877Z,3.63
2022-08-16T07:54:57.788Z,4.20
2022-08-16T07:57:24.712Z,4.45
2022-08-16T07:59:51.956Z,3.53
2022-08-16T08:02:20.526Z,4.03
2022-08-16T08:04:48.199Z,3.72
2022-08-16T08:07:16.271Z,3.85
2022-08-16T08:09:43.927Z,3.80
2022-08-16T08:12:32.043Z,4.05
2022-08-16T08:14:58.217Z,3.70
2022-08-16T08:17:25.232Z,3.85
2022-08-16T08:20:13.395Z,4.05
2022-08-16T08:22:51.508Z,3.65
2022-08-16T08:25:18.593Z,4.00
2022-08-16T08:27:46.523Z,4.50
2022-08-16T08:30:51.889Z,4.00
2022-08-16T08:33:01.139Z,4.00
2022-08-16T08:35:28.478Z,3.90
2022-08-16T08:37:56.433Z,3.40
2022-08-16T08:40:26.736Z,4.00
2022-08-16T08:43:00.613Z,3.80
2022-08-16T08:45:48.337Z,3.40
2022-08-16T08:48:34.085Z,3.65
2022-08-16T08:51:03.918Z,4.20
2022-08-16T08:53:30.901Z,3.70
2022-08-16T08:55:59.195Z,3.30
2022-08-16T08:58:34.438Z,3.50
2022-08-16T09:01:03.043Z,3.72
2022-08-16T09:03:32.504Z,3.65
2022-08-16T09:06:00.555Z,3.40
2022-08-16T09:08:28.492Z,3.50
2022-08-16T09:11:02.046Z,3.88
2022-08-16T09:13:32.607Z,3.60
2022-08-16T09:15:59.697Z,3.45
2022-08-16T09:18:35.692Z,3.58
2022-08-16T09:21:04.493Z,3.75
2022-08-16T09:23:36.676Z,4.13
2022-08-16T09:26:45.332Z,3.78
2022-08-16T09:29:16.922Z,4.30
2022-08-16T09:31:41.185Z,3.78
2022-08-16T09:34:09.298Z,3.72
2022-08-16T09:36:37.505Z,4.00
2022-08-16T09:39:16.145Z,3.67
2022-08-16T09:41:53.197Z,3.97
2022-08-16T09:45:12.821Z,3.67
2022-08-16T09:47:10.457Z,4.10
2022-08-16T09:49:37.538Z,3.80
2022-08-16T09:52:07.846Z,4.05
2022-08-16T09:54:36.886Z,4.07
2022-08-16T09:57:03.830Z,3.75
2022-08-16T09:59:31.468Z,3.58
2022-08-16T10:02:27.034Z,3.55
2022-08-16T10:04:54.621Z,3.42
2022-08-16T10:07:22.120Z,3.35
2022-08-16T10:09:55.852Z,3.58
2022-08-16T10:12:55.596Z,3.65
2022-08-16T10:15:22.671Z,4.70
2022-08-16T10:18:01.471Z,5.97
2022-08-16T10:20:34.868Z,4.82
2022-08-16T10:23:07.140Z,3.95
2022-08-16T10:28:29.566Z,3.45
2022-08-16T10:30:58.877Z,4.32
2022-08-16T10:33:29.458Z,4.10
2022-08-16T10:36:02.563Z,3.75
2022-08-16T10:38:30.191Z,3.25
2022-08-16T10:41:00.351Z,3.42
2022-08-16T10:43:27.649Z,3.72
2022-08-16T10:46:00.725Z,3.72
2022-08-16T10:48:29.287Z,3.50
2022-08-16T10:50:59.889Z,3.63
2022-08-16T10:53:32.445Z,3.58
2022-08-16T10:56:06.462Z,3.50
2022-08-16T10:58:52.937Z,3.33
2022-08-16T11:01:39.818Z,2.95
2022-08-16T11:05:04.553Z,2.97
2022-08-16T11:07:43.591Z,3.45
2022-08-16T11:09:43.955Z,3.58
2022-08-16T11:12:14.053Z,3.15
2022-08-16T11:15:11.216Z,2.88
2022-08-16T11:17:28.423Z,3.30
2022-08-16T11:20:36.790Z,2.67
2022-08-16T11:22:50.108Z,3.03
2022-08-16T11:28:08.144Z,3.05
2022-08-16T11:30:39.415Z,4.05
2022-08-16T11:33:08.396Z,3.07
2022-08-16T11:38:51.018Z,2.80
2022-08-16T11:41:10.908Z,3.17
2022-08-16T11:43:39.119Z,2.90
2022-08-16T11:46:42.894Z,2.47
2022-08-16T11:48:58.576Z,2.92
2022-08-16T11:51:25.352Z,3.08
2022-08-16T11:53:52.723Z,2.97
2022-08-16T11:56:39.887Z,2.60
2022-08-16T11:59:07.142Z,2.72
2022-08-16T12:01:44.488Z,4.28
2022-08-16T12:04:22.178Z,3.33
2022-08-16T12:06:49.459Z,2.92
2022-08-16T12:09:16.782Z,3.13
2022-08-16T12:11:44.915Z,3.03
2022-08-16T12:14:14.314Z,3.08
2022-08-16T12:16:48.711Z,2.95
2022-08-16T12:19:22.388Z,2.97
2022-08-16T12:22:00.252Z,3.13
2022-08-16T12:24:28.167Z,3.08
2022-08-16T12:26:55.266Z,3.42
2022-08-16T12:29:22.287Z,3.20
2022-08-16T12:31:59.122Z,3.28
2022-08-16T12:34:37.597Z,2.53
2022-08-16T12:37:15.550Z,2.75
2022-08-16T12:39:50.768Z,2.70
2022-08-16T12:42:20.410Z,3.15
2022-08-16T12:44:47.515Z,2.70
2022-08-16T12:47:32.696Z,2.67
2022-08-16T12:49:59.446Z,2.85
2022-08-16T12:52:33.636Z,2.65
2022-08-16T12:55:01.145Z,2.67
2022-08-16T12:57:36.225Z,2.78
2022-08-16T13:00:07.337Z,2.65
2022-08-16T13:02:36.253Z,2.30
2022-08-16T13:05:04.367Z,2.53
2022-08-16T13:07:37.417Z,2.30
2022-08-16T13:10:20.855Z,2.30
2022-08-16T13:13:00.505Z,2.20
2022-08-16T13:15:28.842Z,2.58
2022-08-16T13:18:00.108Z,2.20
2022-08-16T13:20:29.112Z,2.28
2022-08-16T13:23:11.624Z,2.20
2022-08-16T13:25:46.173Z,2.42
2022-08-16T13:28:18.526Z,2.30
2022-08-16T13:30:51.686Z,2.22
2022-08-16T13:33:29.025Z,2.00
2022-08-16T13:36:00.880Z,2.08
2022-08-16T13:38:36.764Z,2.30
2022-08-16T13:41:08.398Z,2.20
2022-08-16T13:43:38.338Z,2.30
2022-08-16T13:46:05.587Z,2.58
2022-08-16T13:48:42.533Z,2.50
2022-08-16T13:51:16.744Z,2.40
2022-08-16T13:53:54.224Z,2.45
2022-08-16T13:56:25.906Z,2.22
2022-08-16T13:59:03.963Z,2.58
2022-08-16T14:01:32.955Z,2.67
2022-08-16T14:04:03.631Z,2.28
2022-08-16T14:06:31.237Z,2.30
2022-08-16T14:09:06.171Z,2.20
2022-08-16T14:11:33.857Z,2.70
2022-08-16T14:14:00.603Z,2.47
2022-08-16T14:16:33.599Z,2.35
2022-08-16T14:19:01.038Z,2.33
2022-08-16T14:21:35.169Z,2.10
2022-08-16T14:24:12.773Z,2.40
2022-08-16T14:26:49.478Z,2.40
2022-08-16T14:31:49.615Z,2.67
2022-08-16T14:34:20.866Z,2.30
2022-08-16T14:36:52.063Z,2.17
2022-08-16T14:39:22.037Z,3.03
2022-08-16T14:41:48.969Z,2.50
2022-08-16T14:44:20.114Z,2.25
2022-08-16T14:46:46.985Z,2.45
2022-08-16T14:49:14.532Z,2.47
2022-08-16T14:51:46.222Z,2.85
2022-08-16T14:56:42.936Z,2.20
2022-08-16T14:59:13.425Z,2.28
2022-08-16T15:01:42.426Z,2.50
2022-08-16T15:04:39.774Z,2.60
2022-08-16T15:07:17.214Z,2.50
2022-08-16T15:12:32.709Z,2.47
2022-08-16T15:15:00.530Z,2.70
2022-08-16T15:17:34.077Z,2.80
2022-08-16T15:20:08.722Z,2.40
2022-08-16T15:22:38.756Z,2.83
2022-08-16T15:25:09.757Z,2.92
2022-08-16T15:27:36.839Z,2.50
2022-08-16T15:30:56.676Z,2.90
2022-08-16T15:32:56.407Z,2.60
2022-08-16T15:35:23.504Z,3.00
2022-08-16T15:37:54.488Z,3.13
2022-08-16T15:40:32.137Z,2.53
2022-08-16T15:43:02.750Z,3.10
2022-08-16T15:45:47.880Z,2.50
2022-08-16T15:48:28.536Z,3.13
2022-08-16T15:50:57.972Z,2.90
2022-08-16T15:53:27.358Z,2.38
2022-08-16T15:55:55.865Z,2.70
2022-08-16T15:58:35.288Z,2.85
2022-08-16T16:01:05.649Z,2.53
2022-08-16T16:03:34.687Z,3.03
2022-08-16T16:06:02.782Z,3.00
2022-08-16T16:08:30.965Z,2.83
2022-08-16T16:11:03.277Z,2.70
2022-08-16T16:13:30.812Z,3.35
2022-08-16T16:15:59.529Z,2.95
2022-08-16T16:18:26.347Z,2.40
2022-08-16T16:20:55.466Z,2.75
2022-08-16T16:23:25.778Z,3.00
2022-08-16T16:25:53.507Z,2.60
2022-08-16T16:28:29.920Z,2.47
2022-08-16T16:31:12.678Z,2.88
2022-08-16T16:33:43.524Z,2.63
2022-08-16T16:36:13.611Z,2.80
2022-08-16T16:38:41.976Z,2.95
2022-08-16T16:41:10.064Z,2.97
2022-08-16T16:43:41.636Z,3.28
2022-08-16T16:46:40.920Z,3.40
2022-08-16T16:48:56.456Z,2.55
2022-08-16T16:51:24.629Z,2.88
2022-08-16T16:53:56.549Z,2.88
2022-08-16T16:56:31.067Z,2.70
2022-08-16T16:59:06.921Z,3.28
2022-08-16T17:01:57.729Z,2.60
2022-08-16T17:04:32.357Z,2.80
2022-08-16T17:07:01.865Z,2.75
2022-08-16T17:09:28.829Z,2.80
2022-08-16T17:11:56.532Z,2.90
2022-08-16T17:14:32.868Z,2.80
2022-08-16T17:17:04.067Z,2.63
2022-08-16T17:19:31.781Z,2.70
2022-08-16T17:21:59.369Z,2.30
2022-08-16T17:24:26.337Z,2.60
2022-08-16T17:27:06.148Z,3.03
2022-08-16T17:29:33.930Z,2.63
2022-08-16T17:32:32.503Z,3.08
2022-08-16T17:34:50.636Z,2.78
2022-08-16T17:37:17.878Z,3.28
2022-08-16T17:39:59.676Z,2.78
2022-08-16T17:42:26.732Z,2.80
2022-08-16T17:44:54.395Z,2.83
2022-08-16T17:47:21.336Z,2.88
2022-08-16T17:49:48.089Z,2.92
2022-08-16T17:52:14.852Z,3.13
2022-08-16T17:54:41.592Z,2.90
2022-08-16T17:57:08.197Z,2.80
2022-08-16T17:59:41.514Z,3.03
2022-08-16T18:04:55.684Z,2.90
2022-08-16T18:07:22.556Z,2.75
2022-08-16T18:09:49.720Z,3.10
2022-08-16T18:12:44.583Z,2.88
2022-08-16T18:15:12.440Z,3.22
2022-08-16T18:17:39.522Z,2.80
2022-08-16T18:20:28.201Z,2.92
2022-08-16T18:22:55.438Z,2.90
2022-08-16T18:25:22.220Z,2.63
2022-08-16T18:27:48.883Z,3.17
2022-08-16T18:30:17.707Z,3.42
2022-08-16T18:32:52.931Z,2.92
2022-08-16T18:35:20.521Z,3.03
2022-08-16T18:37:47.811Z,3.45
2022-08-16T18:40:15.470Z,3.10
2022-08-16T18:43:06.423Z,3.10
2022-08-16T18:45:35.460Z,2.97
2022-08-16T18:48:04.681Z,2.75
2022-08-16T18:50:58.760Z,2.88
2022-08-16T18:53:20.699Z,2.90
2022-08-16T18:55:48.290Z,2.70
2022-08-16T18:58:15.758Z,2.72
2022-08-16T19:00:47.143Z,2.97
2022-08-16T19:03:26.509Z,2.92
2022-08-16T19:06:13.929Z,3.00
2022-08-16T19:08:43.646Z,3.20
2022-08-16T19:11:14.028Z,3.33
2022-08-16T19:13:44.339Z,2.90
2022-08-16T19:16:12.157Z,3.00
2022-08-16T19:18:38.822Z,3.00
2022-08-16T19:21:06.781Z,3.10
2022-08-16T19:23:35.979Z,3.47
2022-08-16T19:26:25.756Z,2.55
2022-08-16T19:28:59.570Z,3.03
2022-08-16T19:31:31.158Z,2.90
2022-08-16T19:33:58.159Z,3.25
2022-08-16T19:36:35.014Z,3.17
2022-08-16T19:39:06.266Z,3.33
2022-08-16T19:41:37.832Z,3.20
2022-08-16T19:44:06.364Z,3.20
2022-08-16T19:46:33.334Z,3.47
2022-08-16T19:49:00.316Z,3.30
2022-08-16T19:51:28.075Z,3.20
2022-08-16T19:53:54.825Z,2.83
2022-08-16T19:56:23.786Z,2.85
2022-08-16T19:59:17.392Z,3.17
2022-08-16T20:01:42.055Z,3.25
2022-08-16T20:04:12.545Z,3.28
2022-08-16T20:06:40.697Z,3.20
2022-08-16T20:09:07.452Z,3.55
2022-08-16T20:11:35.012Z,3.33
2022-08-16T20:14:02.575Z,3.13
2022-08-16T20:16:29.706Z,3.85
2022-08-16T20:18:57.755Z,3.75
2022-08-16T20:21:24.525Z,3.72
2022-08-16T20:23:51.374Z,3.42
2022-08-16T20:26:18.912Z,3.38
2022-08-16T20:28:53.700Z,3.55
2022-08-16T20:31:24.716Z,3.30
2022-08-16T20:33:52.039Z,3.33
2022-08-16T20:36:18.683Z,3.60
2022-08-16T20:38:47.524Z,3.40
2022-08-16T20:41:15.469Z,3.03
2022-08-16T20:43:42.092Z,3.78
2022-08-16T20:46:08.729Z,3.67
2022-08-16T20:48:35.362Z,3.78
2022-08-16T20:51:01.997Z,4.30
2022-08-16T20:53:28.579Z,4.50
2022-08-16T20:55:55.237Z,4.60
2022-08-16T20:58:21.798Z,4.40
2022-08-16T21:00:48.504Z,4.63
2022-08-16T21:03:15.178Z,4.05
2022-08-16T21:05:42.027Z,4.57
2022-08-16T21:08:52.636Z,4.22
2022-08-16T21:10:56.768Z,3.88
2022-08-16T21:13:25.634Z,3.92
2022-08-16T21:15:52.425Z,4.20
2022-08-16T21:18:19.087Z,3.70
2022-08-16T21:20:46.162Z,4.20
2022-08-16T21:23:12.827Z,3.83
2022-08-16T21:25:44.832Z,4.13
2022-08-16T21:28:39.136Z,4.20
2022-08-16T21:31:11.985Z,3.83
2022-08-16T21:33:38.879Z,4.05
2022-08-16T21:36:05.793Z,4.10
2022-08-16T21:38:32.473Z,4.35
2022-08-16T21:41:00.303Z,3.92
2022-08-16T21:43:31.750Z,4.30
2022-08-16T21:45:58.982Z,3.95
2022-08-16T21:48:34.392Z,4.35
2022-08-16T21:51:04.166Z,4.03
2022-08-16T21:53:30.817Z,4.45
2022-08-16T21:55:58.395Z,4.45
2022-08-16T21:58:25.469Z,4.10
2022-08-16T22:00:52.784Z,4.68
2022-08-16T22:03:21.113Z,4.63
2022-08-16T22:06:12.074Z,4.55
2022-08-16T22:08:49.201Z,4.93
2022-08-16T22:11:23.976Z,4.68
2022-08-16T22:13:58.891Z,4.40
2022-08-16T22:16:32.184Z,4.70
2022-08-16T22:18:59.455Z,5.10
2022-08-16T22:21:26.170Z,5.10
2022-08-16T22:23:57.291Z,4.50
2022-08-16T22:26:32.515Z,4.63
2022-08-16T22:29:01.083Z,4.68
2022-08-16T22:31:28.225Z,4.72
2022-08-16T22:33:56.779Z,5.53
2022-08-16T22:36:23.903Z,4.55
2022-08-16T22:38:57.950Z,4.93
2022-08-16T22:41:26.011Z,4.65
2022-08-16T22:43:52.702Z,5.22
2022-08-16T22:46:19.679Z,5.13
2022-08-16T22:48:47.821Z,4.97
2022-08-16T22:51:14.493Z,4.90
2022-08-16T22:53:41.072Z,5.03
2022-08-16T22:56:08.338Z,5.30
2022-08-16T22:58:36.641Z,4.95
2022-08-16T23:01:05.988Z,5.25
2022-08-16T23:03:32.871Z,5.55
2022-08-16T23:06:02.315Z,5.13
2022-08-16T23:08:38.114Z,5.72
2022-08-16T23:11:07.339Z,5.40
2022-08-16T23:13:34.044Z,5.00
2022-08-16T23:16:11.151Z,4.93
2022-08-16T23:18:39.269Z,4.97
2022-08-16T23:21:08.687Z,5.60
2022-08-16T23:23:35.382Z,5.10
2022-08-16T23:26:02.445Z,5.50
2022-08-16T23:28:49.820Z,5.72
2022-08-16T23:31:16.531Z,5.63
2022-08-16T23:33:43.152Z,5.50
2022-08-16T23:36:10.186Z,5.10
2022-08-16T23:38:39.355Z,6.18
2022-08-16T23:41:11.501Z,5.75
2022-08-16T23:43:43.123Z,5.35
2022-08-16T23:46:13.920Z,5.78
2022-08-16T23:49:45.137Z,5.95
2022-08-16T23:51:28.963Z,5.72
2022-08-16T23:53:55.783Z,5.60
2022-08-16T23:56:22.408Z,6.20
2022-08-16T23:58:54.389Z,5.80
